Selene — FJ3688 — position and weather

sailwx.info

Track history (hours):
 
Tides and Currents Weather Stations Pressure Air Temp Water Temp Dewpoint Dewpoint Depression Visibility Wind Speed Wind Dir Waves Ship Positions

Selene

Last reported at 2018-May-12 14:19 UTC. Time now 2018-May-21 09:07 UTC.
Position N 49°29' E 000°06'.
Warning: this ship's position is 8 days out of date.

Length 11 m.

Type: Sailing vessel. MMSI: 227358430.

Date/timePositionNaut miles runAvg speedWind from/ knotsBaromVisibWave heightAir tempDewpointWater temp
2018-May-12 14:19N 49°29' E 000°06'0 0.0
2018-May-12 13:55N 49°29' E 000°06'1 3.0
2018-May-12 13:29N 49°30' E 000°04'3 6.0
2018-May-12 13:00N 49°32' E 000°02'2 4.7
2018-May-12 12:29N 49°35' E 000°00'2 3.2
2018-May-12 12:00N 49°36' W 000°00'3 5.1
2018-May-12 11:27N 49°38' E 000°03'2 2.3
2018-May-12 10:25N 49°40' E 000°06'9 4.3
2018-May-12 08:15N 49°45' E 000°18'1 4.5
2018-May-12 08:00N 49°45' E 000°19'2 3.6
2018-May-12 07:30N 49°46' E 000°22'0 0.0
2018-May-11 13:13N 49°46' E 000°22'0 0.0
2018-May-11 12:58N 49°46' E 000°22'0 0.0
2018-May-11 12:28N 49°46' E 000°22'0 0.0
2018-May-11 11:58N 49°46' E 000°22'0 0.0
2018-May-11 11:25N 49°46' E 000°22'1 2.6
2018-May-11 11:00N 49°46' E 000°20'  
2018-May-08 13:36N 49°29' E 000°06'0 0.0
2018-May-08 13:30N 49°29' E 000°06'2 3.5
2018-May-08 13:00N 49°29' E 000°03'5 5.8
2018-May-08 12:11N 49°28' W 000°04'3 4.9
2018-May-08 11:32N 49°27' W 000°09'0 4.8
2018-May-08 11:29N 49°27' W 000°09'4 5.2
2018-May-08 10:42N 49°26' W 000°15'4 0.2
2018-May-07 09:26N 49°30' W 000°17'5 4.6
2018-May-07 08:25N 49°30' W 000°10'4 5.9
2018-May-07 07:46N 49°29' W 000°04'2 6.3
2018-May-07 07:30N 49°29' W 000°02'3 5.2
2018-May-07 07:00N 49°29' E 000°02'1 2.4
2018-May-07 06:29N 49°30' E 000°04'1 2.9
2018-May-07 05:59N 49°29' E 000°06'  
Track history (hours):
 
Tides and Currents Weather Stations Pressure Air Temp Water Temp Dewpoint Dewpoint Depression Visibility Wind Speed Wind Dir Waves Ship Positions

Selene

Last reported at 2018-May-12 14:19 UTC. Time now 2018-May-21 09:07 UTC.
Position N 49°29' E 000°06'.
Warning: this ship's position is 8 days out of date.

Length 11 m.

Type: Sailing vessel. MMSI: 227358430.

Date/timePositionNaut miles runAvg speedWind from/ knotsBaromVisibWave heightAir tempDewpointWater temp
2018-May-12 14:19N 49°29' E 000°06'0 0.0
2018-May-12 13:55N 49°29' E 000°06'1 3.0
2018-May-12 13:29N 49°30' E 000°04'3 6.0
2018-May-12 13:00N 49°32' E 000°02'2 4.7
2018-May-12 12:29N 49°35' E 000°00'2 3.2
2018-May-12 12:00N 49°36' W 000°00'3 5.1
2018-May-12 11:27N 49°38' E 000°03'2 2.3
2018-May-12 10:25N 49°40' E 000°06'9 4.3
2018-May-12 08:15N 49°45' E 000°18'1 4.5
2018-May-12 08:00N 49°45' E 000°19'2 3.6
2018-May-12 07:30N 49°46' E 000°22'0 0.0
2018-May-11 13:13N 49°46' E 000°22'0 0.0
2018-May-11 12:58N 49°46' E 000°22'0 0.0
2018-May-11 12:28N 49°46' E 000°22'0 0.0
2018-May-11 11:58N 49°46' E 000°22'0 0.0
2018-May-11 11:25N 49°46' E 000°22'1 2.6
2018-May-11 11:00N 49°46' E 000°20'  
2018-May-08 13:36N 49°29' E 000°06'0 0.0
2018-May-08 13:30N 49°29' E 000°06'2 3.5
2018-May-08 13:00N 49°29' E 000°03'5 5.8
2018-May-08 12:11N 49°28' W 000°04'3 4.9
2018-May-08 11:32N 49°27' W 000°09'0 4.8
2018-May-08 11:29N 49°27' W 000°09'4 5.2
2018-May-08 10:42N 49°26' W 000°15'4 0.2
2018-May-07 09:26N 49°30' W 000°17'5 4.6
2018-May-07 08:25N 49°30' W 000°10'4 5.9
2018-May-07 07:46N 49°29' W 000°04'2 6.3
2018-May-07 07:30N 49°29' W 000°02'3 5.2
2018-May-07 07:00N 49°29' E 000°02'1 2.4
2018-May-07 06:29N 49°30' E 000°04'1 2.9
2018-May-07 05:59N 49°29' E 000°06'  

Dump ship's entire track history